sensor_id;sensor_type;location;lat;lon;timestamp;P1;durP1;ratioP1;P2;durP2;ratioP2
12088;SDS011;6107;49.078;8.578;2023-02-19T00:01:21;6.50;;;5.00;;
12088;SDS011;6107;49.078;8.578;2023-02-19T00:03:52;6.00;;;4.67;;
12088;SDS011;6107;49.078;8.578;2023-02-19T00:06:20;6.23;;;4.87;;
12088;SDS011;6107;49.078;8.578;2023-02-19T00:08:46;6.37;;;4.73;;
12088;SDS011;6107;49.078;8.578;2023-02-19T00:11:16;6.27;;;4.77;;
12088;SDS011;6107;49.078;8.578;2023-02-19T00:13:43;6.53;;;4.50;;
12088;SDS011;6107;49.078;8.578;2023-02-19T00:18:37;6.07;;;4.67;;
12088;SDS011;6107;49.078;8.578;2023-02-19T00:21:03;6.53;;;4.63;;
12088;SDS011;6107;49.078;8.578;2023-02-19T00:23:29;5.37;;;4.40;;
12088;SDS011;6107;49.078;8.578;2023-02-19T00:25:56;5.93;;;4.43;;
12088;SDS011;6107;49.078;8.578;2023-02-19T00:28:21;5.90;;;4.40;;
12088;SDS011;6107;49.078;8.578;2023-02-19T00:30:47;6.30;;;4.50;;
12088;SDS011;6107;49.078;8.578;2023-02-19T00:33:13;5.43;;;4.27;;
12088;SDS011;6107;49.078;8.578;2023-02-19T00:35:39;5.67;;;3.80;;
12088;SDS011;6107;49.078;8.578;2023-02-19T00:38:05;5.43;;;3.90;;
12088;SDS011;6107;49.078;8.578;2023-02-19T00:40:30;4.73;;;3.67;;
12088;SDS011;6107;49.078;8.578;2023-02-19T00:42:56;5.57;;;3.70;;
12088;SDS011;6107;49.078;8.578;2023-02-19T00:45:21;5.47;;;3.90;;
12088;SDS011;6107;49.078;8.578;2023-02-19T00:47:47;4.93;;;3.97;;
12088;SDS011;6107;49.078;8.578;2023-02-19T00:50:12;4.47;;;3.50;;
12088;SDS011;6107;49.078;8.578;2023-02-19T00:52:38;3.70;;;3.40;;
12088;SDS011;6107;49.078;8.578;2023-02-19T00:55:04;4.07;;;3.10;;
12088;SDS011;6107;49.078;8.578;2023-02-19T00:57:30;3.30;;;3.00;;
12088;SDS011;6107;49.078;8.578;2023-02-19T00:59:55;4.20;;;3.50;;
12088;SDS011;6107;49.078;8.578;2023-02-19T01:02:21;4.07;;;3.20;;
12088;SDS011;6107;49.078;8.578;2023-02-19T01:04:46;4.77;;;4.23;;
12088;SDS011;6107;49.078;8.578;2023-02-19T01:07:12;4.50;;;3.07;;
12088;SDS011;6107;49.078;8.578;2023-02-19T01:09:37;4.00;;;3.03;;
12088;SDS011;6107;49.078;8.578;2023-02-19T01:12:03;3.60;;;2.80;;
12088;SDS011;6107;49.078;8.578;2023-02-19T01:14:29;3.63;;;2.77;;
12088;SDS011;6107;49.078;8.578;2023-02-19T01:16:55;3.60;;;2.90;;
12088;SDS011;6107;49.078;8.578;2023-02-19T01:19:20;3.97;;;3.13;;
12088;SDS011;6107;49.078;8.578;2023-02-19T01:21:46;4.33;;;2.77;;
12088;SDS011;6107;49.078;8.578;2023-02-19T01:24:11;3.50;;;2.63;;
12088;SDS011;6107;49.078;8.578;2023-02-19T01:26:37;3.20;;;2.73;;
12088;SDS011;6107;49.078;8.578;2023-02-19T01:29:02;3.07;;;2.77;;
12088;SDS011;6107;49.078;8.578;2023-02-19T01:31:29;4.03;;;2.73;;
12088;SDS011;6107;49.078;8.578;2023-02-19T01:33:58;3.00;;;2.70;;
12088;SDS011;6107;49.078;8.578;2023-02-19T01:36:25;3.80;;;2.60;;
12088;SDS011;6107;49.078;8.578;2023-02-19T01:38:50;2.90;;;2.50;;
12088;SDS011;6107;49.078;8.578;2023-02-19T01:41:18;3.17;;;2.53;;
12088;SDS011;6107;49.078;8.578;2023-02-19T01:43:59;3.40;;;2.63;;
12088;SDS011;6107;49.078;8.578;2023-02-19T01:46:28;3.47;;;2.70;;
12088;SDS011;6107;49.078;8.578;2023-02-19T01:48:59;3.53;;;2.67;;
12088;SDS011;6107;49.078;8.578;2023-02-19T01:51:47;3.47;;;2.57;;
12088;SDS011;6107;49.078;8.578;2023-02-19T01:54:21;3.67;;;2.70;;
12088;SDS011;6107;49.078;8.578;2023-02-19T01:56:49;3.13;;;2.57;;
12088;SDS011;6107;49.078;8.578;2023-02-19T01:59:16;3.40;;;2.50;;
12088;SDS011;6107;49.078;8.578;2023-02-19T02:01:42;3.03;;;2.63;;
12088;SDS011;6107;49.078;8.578;2023-02-19T02:04:08;3.87;;;2.70;;
12088;SDS011;6107;49.078;8.578;2023-02-19T02:06:43;3.57;;;2.43;;
12088;SDS011;6107;49.078;8.578;2023-02-19T02:09:18;2.97;;;2.47;;
12088;SDS011;6107;49.078;8.578;2023-02-19T02:12:04;3.40;;;2.57;;
12088;SDS011;6107;49.078;8.578;2023-02-19T02:14:33;3.53;;;2.57;;
12088;SDS011;6107;49.078;8.578;2023-02-19T02:20:09;3.70;;;2.70;;
12088;SDS011;6107;49.078;8.578;2023-02-19T02:25:50;2.70;;;2.10;;
12088;SDS011;6107;49.078;8.578;2023-02-19T02:28:43;2.73;;;2.40;;
12088;SDS011;6107;49.078;8.578;2023-02-19T02:31:45;2.93;;;2.20;;
12088;SDS011;6107;49.078;8.578;2023-02-19T02:34:23;2.30;;;1.83;;
12088;SDS011;6107;49.078;8.578;2023-02-19T02:37:10;4.10;;;2.60;;
12088;SDS011;6107;49.078;8.578;2023-02-19T02:39:37;2.33;;;2.03;;
12088;SDS011;6107;49.078;8.578;2023-02-19T02:42:04;2.93;;;2.20;;
12088;SDS011;6107;49.078;8.578;2023-02-19T02:44:49;2.60;;;2.00;;
12088;SDS011;6107;49.078;8.578;2023-02-19T02:47:34;2.30;;;1.93;;
12088;SDS011;6107;49.078;8.578;2023-02-19T02:50:08;2.10;;;1.90;;
12088;SDS011;6107;49.078;8.578;2023-02-19T02:52:39;2.23;;;1.90;;
12088;SDS011;6107;49.078;8.578;2023-02-19T02:55:26;3.30;;;2.07;;
12088;SDS011;6107;49.078;8.578;2023-02-19T02:57:56;2.90;;;2.30;;
12088;SDS011;6107;49.078;8.578;2023-02-19T03:00:22;3.30;;;2.13;;
12088;SDS011;6107;49.078;8.578;2023-02-19T03:02:49;2.00;;;1.80;;
12088;SDS011;6107;49.078;8.578;2023-02-19T03:05:16;2.30;;;2.10;;
12088;SDS011;6107;49.078;8.578;2023-02-19T03:08:04;2.53;;;2.20;;
12088;SDS011;6107;49.078;8.578;2023-02-19T03:13:14;2.67;;;2.00;;
12088;SDS011;6107;49.078;8.578;2023-02-19T03:16:05;2.20;;;2.00;;
12088;SDS011;6107;49.078;8.578;2023-02-19T03:18:54;3.20;;;2.10;;
12088;SDS011;6107;49.078;8.578;2023-02-19T03:21:41;2.67;;;1.90;;
12088;SDS011;6107;49.078;8.578;2023-02-19T03:24:10;2.27;;;1.70;;
12088;SDS011;6107;49.078;8.578;2023-02-19T03:26:56;2.03;;;1.80;;
12088;SDS011;6107;49.078;8.578;2023-02-19T03:29:24;1.83;;;1.70;;
12088;SDS011;6107;49.078;8.578;2023-02-19T03:31:54;2.27;;;1.50;;
12088;SDS011;6107;49.078;8.578;2023-02-19T03:34:33;1.53;;;1.43;;
12088;SDS011;6107;49.078;8.578;2023-02-19T03:40:09;1.70;;;1.60;;
12088;SDS011;6107;49.078;8.578;2023-02-19T03:42:41;2.03;;;1.80;;
12088;SDS011;6107;49.078;8.578;2023-02-19T03:45:22;2.33;;;1.57;;
12088;SDS011;6107;49.078;8.578;2023-02-19T03:48:17;2.30;;;1.70;;
12088;SDS011;6107;49.078;8.578;2023-02-19T03:54:08;2.13;;;1.77;;
12088;SDS011;6107;49.078;8.578;2023-02-19T03:56:51;1.77;;;1.43;;
12088;SDS011;6107;49.078;8.578;2023-02-19T03:59:29;2.17;;;1.90;;
12088;SDS011;6107;49.078;8.578;2023-02-19T04:02:08;2.37;;;1.87;;
12088;SDS011;6107;49.078;8.578;2023-02-19T04:04:58;2.23;;;1.50;;
12088;SDS011;6107;49.078;8.578;2023-02-19T04:07:32;2.20;;;1.67;;
12088;SDS011;6107;49.078;8.578;2023-02-19T04:10:01;2.30;;;1.60;;
12088;SDS011;6107;49.078;8.578;2023-02-19T04:12:29;1.80;;;1.70;;
12088;SDS011;6107;49.078;8.578;2023-02-19T04:15:00;2.53;;;1.70;;
12088;SDS011;6107;49.078;8.578;2023-02-19T04:17:31;1.73;;;1.60;;
12088;SDS011;6107;49.078;8.578;2023-02-19T04:20:00;1.97;;;1.77;;
12088;SDS011;6107;49.078;8.578;2023-02-19T04:22:29;2.50;;;1.80;;
12088;SDS011;6107;49.078;8.578;2023-02-19T04:24:55;2.07;;;1.87;;
12088;SDS011;6107;49.078;8.578;2023-02-19T04:27:21;1.90;;;1.63;;
12088;SDS011;6107;49.078;8.578;2023-02-19T04:29:46;2.20;;;2.00;;
12088;SDS011;6107;49.078;8.578;2023-02-19T04:32:12;1.93;;;1.60;;
12088;SDS011;6107;49.078;8.578;2023-02-19T04:34:38;2.20;;;1.70;;
12088;SDS011;6107;49.078;8.578;2023-02-19T04:37:04;2.10;;;1.90;;
12088;SDS011;6107;49.078;8.578;2023-02-19T04:39:30;1.70;;;1.60;;
12088;SDS011;6107;49.078;8.578;2023-02-19T04:41:55;2.00;;;1.83;;
12088;SDS011;6107;49.078;8.578;2023-02-19T04:44:21;1.70;;;1.43;;
12088;SDS011;6107;49.078;8.578;2023-02-19T04:46:47;3.63;;;1.63;;
12088;SDS011;6107;49.078;8.578;2023-02-19T04:49:13;2.10;;;1.60;;
12088;SDS011;6107;49.078;8.578;2023-02-19T04:51:39;2.20;;;1.87;;
12088;SDS011;6107;49.078;8.578;2023-02-19T04:54:04;2.03;;;1.70;;
12088;SDS011;6107;49.078;8.578;2023-02-19T04:56:30;2.33;;;1.93;;
12088;SDS011;6107;49.078;8.578;2023-02-19T04:58:55;1.87;;;1.60;;
12088;SDS011;6107;49.078;8.578;2023-02-19T05:01:21;1.90;;;1.70;;
12088;SDS011;6107;49.078;8.578;2023-02-19T05:03:46;2.10;;;1.60;;
12088;SDS011;6107;49.078;8.578;2023-02-19T05:06:12;2.47;;;1.90;;
12088;SDS011;6107;49.078;8.578;2023-02-19T05:08:38;2.37;;;1.70;;
12088;SDS011;6107;49.078;8.578;2023-02-19T05:11:05;2.17;;;1.60;;
12088;SDS011;6107;49.078;8.578;2023-02-19T05:13:32;2.03;;;1.70;;
12088;SDS011;6107;49.078;8.578;2023-02-19T05:16:11;2.63;;;1.90;;
12088;SDS011;6107;49.078;8.578;2023-02-19T05:18:39;1.87;;;1.60;;
12088;SDS011;6107;49.078;8.578;2023-02-19T05:21:06;2.27;;;1.80;;
12088;SDS011;6107;49.078;8.578;2023-02-19T05:23:32;2.17;;;1.97;;
12088;SDS011;6107;49.078;8.578;2023-02-19T05:25:58;2.50;;;1.93;;
12088;SDS011;6107;49.078;8.578;2023-02-19T05:28:23;2.87;;;1.90;;
12088;SDS011;6107;49.078;8.578;2023-02-19T05:30:53;3.93;;;1.93;;
12088;SDS011;6107;49.078;8.578;2023-02-19T05:33:20;2.13;;;1.77;;
12088;SDS011;6107;49.078;8.578;2023-02-19T05:35:48;2.97;;;1.90;;
12088;SDS011;6107;49.078;8.578;2023-02-19T05:38:15;2.93;;;1.93;;
12088;SDS011;6107;49.078;8.578;2023-02-19T05:40:42;2.63;;;2.00;;
12088;SDS011;6107;49.078;8.578;2023-02-19T05:43:08;2.03;;;1.83;;
12088;SDS011;6107;49.078;8.578;2023-02-19T05:45:34;2.50;;;1.80;;
12088;SDS011;6107;49.078;8.578;2023-02-19T05:48:01;2.73;;;2.20;;
12088;SDS011;6107;49.078;8.578;2023-02-19T05:50:27;2.40;;;2.17;;
12088;SDS011;6107;49.078;8.578;2023-02-19T05:52:53;2.70;;;2.33;;
12088;SDS011;6107;49.078;8.578;2023-02-19T05:55:18;4.40;;;2.07;;
12088;SDS011;6107;49.078;8.578;2023-02-19T05:57:45;2.53;;;2.03;;
12088;SDS011;6107;49.078;8.578;2023-02-19T06:00:12;2.53;;;2.13;;
12088;SDS011;6107;49.078;8.578;2023-02-19T06:02:40;3.87;;;2.00;;
12088;SDS011;6107;49.078;8.578;2023-02-19T06:05:06;2.53;;;1.97;;
12088;SDS011;6107;49.078;8.578;2023-02-19T06:07:32;2.87;;;2.00;;
12088;SDS011;6107;49.078;8.578;2023-02-19T06:09:58;3.37;;;1.90;;
12088;SDS011;6107;49.078;8.578;2023-02-19T06:12:24;2.93;;;2.20;;
12088;SDS011;6107;49.078;8.578;2023-02-19T06:14:49;3.00;;;1.83;;
12088;SDS011;6107;49.078;8.578;2023-02-19T06:17:15;2.90;;;2.00;;
12088;SDS011;6107;49.078;8.578;2023-02-19T06:19:40;3.67;;;1.63;;
12088;SDS011;6107;49.078;8.578;2023-02-19T06:22:06;3.37;;;2.20;;
12088;SDS011;6107;49.078;8.578;2023-02-19T06:24:32;2.10;;;1.80;;
12088;SDS011;6107;49.078;8.578;2023-02-19T06:26:58;2.20;;;1.77;;
12088;SDS011;6107;49.078;8.578;2023-02-19T06:29:23;2.90;;;2.10;;
12088;SDS011;6107;49.078;8.578;2023-02-19T06:31:49;1.90;;;1.70;;
12088;SDS011;6107;49.078;8.578;2023-02-19T06:34:15;2.77;;;2.00;;
12088;SDS011;6107;49.078;8.578;2023-02-19T06:36:40;2.47;;;1.70;;
12088;SDS011;6107;49.078;8.578;2023-02-19T06:39:06;2.57;;;2.00;;
12088;SDS011;6107;49.078;8.578;2023-02-19T06:41:32;2.30;;;1.67;;
12088;SDS011;6107;49.078;8.578;2023-02-19T06:43:57;2.17;;;1.80;;
12088;SDS011;6107;49.078;8.578;2023-02-19T06:46:23;2.37;;;1.90;;
12088;SDS011;6107;49.078;8.578;2023-02-19T06:48:49;2.07;;;1.87;;
12088;SDS011;6107;49.078;8.578;2023-02-19T06:51:15;2.40;;;1.70;;
12088;SDS011;6107;49.078;8.578;2023-02-19T06:53:50;2.00;;;1.70;;
12088;SDS011;6107;49.078;8.578;2023-02-19T06:56:26;2.77;;;1.83;;
12088;SDS011;6107;49.078;8.578;2023-02-19T06:58:53;2.57;;;1.80;;
12088;SDS011;6107;49.078;8.578;2023-02-19T07:01:21;2.47;;;1.80;;
12088;SDS011;6107;49.078;8.578;2023-02-19T07:03:47;2.27;;;1.67;;
12088;SDS011;6107;49.078;8.578;2023-02-19T07:06:13;2.13;;;1.60;;
12088;SDS011;6107;49.078;8.578;2023-02-19T07:08:39;2.43;;;1.90;;
12088;SDS011;6107;49.078;8.578;2023-02-19T07:11:04;1.93;;;1.70;;
12088;SDS011;6107;49.078;8.578;2023-02-19T07:13:30;2.63;;;2.07;;
12088;SDS011;6107;49.078;8.578;2023-02-19T07:16:03;3.03;;;1.80;;
12088;SDS011;6107;49.078;8.578;2023-02-19T07:18:31;3.00;;;2.30;;
12088;SDS011;6107;49.078;8.578;2023-02-19T07:21:04;3.87;;;2.30;;
12088;SDS011;6107;49.078;8.578;2023-02-19T07:23:37;2.77;;;2.07;;
12088;SDS011;6107;49.078;8.578;2023-02-19T07:26:03;2.67;;;2.10;;
12088;SDS011;6107;49.078;8.578;2023-02-19T07:28:32;2.50;;;2.00;;
12088;SDS011;6107;49.078;8.578;2023-02-19T07:31:01;3.13;;;1.90;;
12088;SDS011;6107;49.078;8.578;2023-02-19T07:33:27;3.03;;;2.30;;
12088;SDS011;6107;49.078;8.578;2023-02-19T07:35:53;2.57;;;2.07;;
12088;SDS011;6107;49.078;8.578;2023-02-19T07:38:18;4.87;;;2.50;;
12088;SDS011;6107;49.078;8.578;2023-02-19T07:40:52;3.40;;;2.43;;
12088;SDS011;6107;49.078;8.578;2023-02-19T07:43:18;2.90;;;2.40;;
12088;SDS011;6107;49.078;8.578;2023-02-19T07:45:44;3.73;;;2.50;;
12088;SDS011;6107;49.078;8.578;2023-02-19T07:48:10;5.83;;;3.03;;
12088;SDS011;6107;49.078;8.578;2023-02-19T07:50:36;5.37;;;2.80;;
12088;SDS011;6107;49.078;8.578;2023-02-19T07:53:02;3.00;;;2.40;;
12088;SDS011;6107;49.078;8.578;2023-02-19T07:55:27;4.07;;;2.47;;
12088;SDS011;6107;49.078;8.578;2023-02-19T07:57:53;4.93;;;2.60;;
12088;SDS011;6107;49.078;8.578;2023-02-19T08:00:18;5.40;;;3.03;;
12088;SDS011;6107;49.078;8.578;2023-02-19T08:02:44;6.53;;;2.70;;
12088;SDS011;6107;49.078;8.578;2023-02-19T08:05:26;6.93;;;3.60;;
12088;SDS011;6107;49.078;8.578;2023-02-19T08:07:53;3.57;;;2.77;;
12088;SDS011;6107;49.078;8.578;2023-02-19T08:10:18;2.60;;;2.27;;
12088;SDS011;6107;49.078;8.578;2023-02-19T08:13:03;4.17;;;2.83;;
12088;SDS011;6107;49.078;8.578;2023-02-19T08:15:47;5.00;;;2.87;;
12088;SDS011;6107;49.078;8.578;2023-02-19T08:18:13;4.43;;;2.37;;
12088;SDS011;6107;49.078;8.578;2023-02-19T08:20:40;4.43;;;2.70;;
12088;SDS011;6107;49.078;8.578;2023-02-19T08:23:06;3.23;;;2.50;;
12088;SDS011;6107;49.078;8.578;2023-02-19T08:25:32;4.23;;;2.53;;
12088;SDS011;6107;49.078;8.578;2023-02-19T08:27:58;3.47;;;2.80;;
12088;SDS011;6107;49.078;8.578;2023-02-19T08:30:27;3.80;;;2.70;;
12088;SDS011;6107;49.078;8.578;2023-02-19T08:32:53;4.20;;;3.00;;
12088;SDS011;6107;49.078;8.578;2023-02-19T08:35:19;4.30;;;2.97;;
12088;SDS011;6107;49.078;8.578;2023-02-19T08:37:44;4.00;;;2.87;;
12088;SDS011;6107;49.078;8.578;2023-02-19T08:40:10;3.30;;;2.63;;
12088;SDS011;6107;49.078;8.578;2023-02-19T08:42:36;4.23;;;3.10;;
12088;SDS011;6107;49.078;8.578;2023-02-19T08:45:02;3.60;;;2.60;;
12088;SDS011;6107;49.078;8.578;2023-02-19T08:47:30;3.83;;;2.80;;
12088;SDS011;6107;49.078;8.578;2023-02-19T08:49:59;3.60;;;2.63;;
12088;SDS011;6107;49.078;8.578;2023-02-19T08:52:25;3.10;;;2.70;;
12088;SDS011;6107;49.078;8.578;2023-02-19T08:54:50;4.53;;;3.03;;
12088;SDS011;6107;49.078;8.578;2023-02-19T08:57:16;5.63;;;2.80;;
12088;SDS011;6107;49.078;8.578;2023-02-19T08:59:41;7.40;;;2.80;;
12088;SDS011;6107;49.078;8.578;2023-02-19T09:02:07;4.13;;;2.43;;
12088;SDS011;6107;49.078;8.578;2023-02-19T09:04:33;4.00;;;2.90;;
12088;SDS011;6107;49.078;8.578;2023-02-19T09:07:00;3.87;;;2.83;;
12088;SDS011;6107;49.078;8.578;2023-02-19T09:09:25;5.87;;;2.80;;
12088;SDS011;6107;49.078;8.578;2023-02-19T09:11:51;4.80;;;2.50;;
12088;SDS011;6107;49.078;8.578;2023-02-19T09:14:16;3.10;;;2.50;;
12088;SDS011;6107;49.078;8.578;2023-02-19T09:16:42;3.10;;;2.37;;
12088;SDS011;6107;49.078;8.578;2023-02-19T09:19:07;7.20;;;3.10;;
12088;SDS011;6107;49.078;8.578;2023-02-19T09:21:33;4.30;;;2.90;;
12088;SDS011;6107;49.078;8.578;2023-02-19T09:23:58;3.23;;;2.43;;
12088;SDS011;6107;49.078;8.578;2023-02-19T09:26:24;3.13;;;2.47;;
12088;SDS011;6107;49.078;8.578;2023-02-19T09:28:51;4.17;;;2.50;;
12088;SDS011;6107;49.078;8.578;2023-02-19T09:31:17;3.43;;;2.57;;
12088;SDS011;6107;49.078;8.578;2023-02-19T09:33:43;4.77;;;2.47;;
12088;SDS011;6107;49.078;8.578;2023-02-19T09:36:10;3.17;;;2.37;;
12088;SDS011;6107;49.078;8.578;2023-02-19T09:38:36;4.57;;;2.90;;
12088;SDS011;6107;49.078;8.578;2023-02-19T09:41:07;4.00;;;2.60;;
12088;SDS011;6107;49.078;8.578;2023-02-19T09:43:33;4.10;;;2.37;;
12088;SDS011;6107;49.078;8.578;2023-02-19T09:46:42;3.37;;;2.50;;
12088;SDS011;6107;49.078;8.578;2023-02-19T09:49:01;3.30;;;2.43;;
12088;SDS011;6107;49.078;8.578;2023-02-19T09:51:31;4.70;;;2.80;;
12088;SDS011;6107;49.078;8.578;2023-02-19T09:53:59;4.20;;;2.83;;
12088;SDS011;6107;49.078;8.578;2023-02-19T09:56:26;6.37;;;2.60;;
12088;SDS011;6107;49.078;8.578;2023-02-19T09:58:54;3.03;;;2.47;;
12088;SDS011;6107;49.078;8.578;2023-02-19T10:01:22;4.10;;;2.33;;
12088;SDS011;6107;49.078;8.578;2023-02-19T10:03:52;4.53;;;2.47;;
12088;SDS011;6107;49.078;8.578;2023-02-19T10:06:19;4.33;;;2.60;;
12088;SDS011;6107;49.078;8.578;2023-02-19T10:08:52;3.90;;;2.50;;
12088;SDS011;6107;49.078;8.578;2023-02-19T10:11:19;3.13;;;2.67;;
12088;SDS011;6107;49.078;8.578;2023-02-19T10:14:03;5.03;;;2.80;;
12088;SDS011;6107;49.078;8.578;2023-02-19T10:16:33;4.20;;;2.60;;
12088;SDS011;6107;49.078;8.578;2023-02-19T10:19:04;3.33;;;2.37;;
12088;SDS011;6107;49.078;8.578;2023-02-19T10:21:33;2.93;;;2.37;;
12088;SDS011;6107;49.078;8.578;2023-02-19T10:24:01;5.83;;;2.67;;
12088;SDS011;6107;49.078;8.578;2023-02-19T10:26:27;4.13;;;2.40;;
12088;SDS011;6107;49.078;8.578;2023-02-19T10:28:58;5.67;;;2.80;;
12088;SDS011;6107;49.078;8.578;2023-02-19T10:31:24;7.60;;;3.13;;
12088;SDS011;6107;49.078;8.578;2023-02-19T10:33:51;5.53;;;2.87;;
12088;SDS011;6107;49.078;8.578;2023-02-19T10:36:39;4.37;;;2.63;;
12088;SDS011;6107;49.078;8.578;2023-02-19T10:41:54;4.63;;;2.70;;
12088;SDS011;6107;49.078;8.578;2023-02-19T10:44:21;4.77;;;2.73;;
12088;SDS011;6107;49.078;8.578;2023-02-19T10:46:52;4.90;;;2.60;;
12088;SDS011;6107;49.078;8.578;2023-02-19T10:51:48;6.23;;;2.60;;
12088;SDS011;6107;49.078;8.578;2023-02-19T10:54:16;3.37;;;2.43;;
12088;SDS011;6107;49.078;8.578;2023-02-19T10:56:44;5.10;;;3.33;;
12088;SDS011;6107;49.078;8.578;2023-02-19T11:02:01;3.87;;;2.63;;
12088;SDS011;6107;49.078;8.578;2023-02-19T11:04:30;3.13;;;2.50;;
12088;SDS011;6107;49.078;8.578;2023-02-19T11:07:08;4.73;;;2.93;;
12088;SDS011;6107;49.078;8.578;2023-02-19T11:09:52;4.10;;;2.90;;
12088;SDS011;6107;49.078;8.578;2023-02-19T11:12:31;3.80;;;2.47;;
12088;SDS011;6107;49.078;8.578;2023-02-19T11:15:02;5.33;;;2.67;;
12088;SDS011;6107;49.078;8.578;2023-02-19T11:17:44;5.77;;;2.70;;
12088;SDS011;6107;49.078;8.578;2023-02-19T11:20:17;6.03;;;2.90;;
12088;SDS011;6107;49.078;8.578;2023-02-19T11:22:43;4.97;;;2.97;;
12088;SDS011;6107;49.078;8.578;2023-02-19T11:30:22;5.53;;;2.93;;
12088;SDS011;6107;49.078;8.578;2023-02-19T11:33:12;5.43;;;2.57;;
12088;SDS011;6107;49.078;8.578;2023-02-19T11:36:34;5.07;;;3.00;;
12088;SDS011;6107;49.078;8.578;2023-02-19T11:38:40;5.70;;;2.80;;
12088;SDS011;6107;49.078;8.578;2023-02-19T11:41:13;4.30;;;2.30;;
12088;SDS011;6107;49.078;8.578;2023-02-19T11:56:33;4.80;;;3.23;;
12088;SDS011;6107;49.078;8.578;2023-02-19T11:59:10;3.37;;;2.30;;
12088;SDS011;6107;49.078;8.578;2023-02-19T12:04:47;5.87;;;3.00;;
12088;SDS011;6107;49.078;8.578;2023-02-19T12:10:15;2.77;;;2.30;;
12088;SDS011;6107;49.078;8.578;2023-02-19T12:13:01;4.87;;;2.60;;
12088;SDS011;6107;49.078;8.578;2023-02-19T12:18:28;4.93;;;2.50;;
12088;SDS011;6107;49.078;8.578;2023-02-19T12:26:46;3.77;;;2.37;;
12088;SDS011;6107;49.078;8.578;2023-02-19T12:32:09;5.50;;;2.70;;
12088;SDS011;6107;49.078;8.578;2023-02-19T12:45:21;4.90;;;2.97;;
12088;SDS011;6107;49.078;8.578;2023-02-19T12:47:59;7.83;;;3.67;;
12088;SDS011;6107;49.078;8.578;2023-02-19T12:50:38;4.43;;;3.10;;
12088;SDS011;6107;49.078;8.578;2023-02-19T12:53:06;5.60;;;3.87;;
12088;SDS011;6107;49.078;8.578;2023-02-19T12:55:42;5.30;;;3.70;;
12088;SDS011;6107;49.078;8.578;2023-02-19T12:58:11;6.17;;;3.30;;
12088;SDS011;6107;49.078;8.578;2023-02-19T13:00:46;7.20;;;3.07;;
12088;SDS011;6107;49.078;8.578;2023-02-19T13:06:14;6.53;;;3.50;;
12088;SDS011;6107;49.078;8.578;2023-02-19T13:11:34;4.80;;;2.87;;
12088;SDS011;6107;49.078;8.578;2023-02-19T13:14:07;4.33;;;2.77;;
12088;SDS011;6107;49.078;8.578;2023-02-19T13:16:42;4.70;;;2.80;;
12088;SDS011;6107;49.078;8.578;2023-02-19T13:19:12;2.43;;;2.07;;
12088;SDS011;6107;49.078;8.578;2023-02-19T13:21:39;3.53;;;2.27;;
12088;SDS011;6107;49.078;8.578;2023-02-19T13:24:26;6.30;;;2.50;;
12088;SDS011;6107;49.078;8.578;2023-02-19T13:27:01;3.27;;;2.10;;
12088;SDS011;6107;49.078;8.578;2023-02-19T13:32:45;6.33;;;2.90;;
12088;SDS011;6107;49.078;8.578;2023-02-19T13:35:49;6.40;;;2.67;;
12088;SDS011;6107;49.078;8.578;2023-02-19T13:38:30;4.77;;;2.40;;
12088;SDS011;6107;49.078;8.578;2023-02-19T13:40:58;3.30;;;2.43;;
12088;SDS011;6107;49.078;8.578;2023-02-19T13:43:28;7.03;;;2.50;;
12088;SDS011;6107;49.078;8.578;2023-02-19T13:46:07;7.77;;;2.57;;
12088;SDS011;6107;49.078;8.578;2023-02-19T13:48:35;6.07;;;2.70;;
12088;SDS011;6107;49.078;8.578;2023-02-19T13:58:59;4.87;;;2.10;;
12088;SDS011;6107;49.078;8.578;2023-02-19T14:14:46;7.57;;;2.27;;
12088;SDS011;6107;49.078;8.578;2023-02-19T14:28:36;4.90;;;2.57;;
12088;SDS011;6107;49.078;8.578;2023-02-19T14:33:22;4.97;;;2.07;;
12088;SDS011;6107;49.078;8.578;2023-02-19T14:35:50;6.20;;;3.13;;
12088;SDS011;6107;49.078;8.578;2023-02-19T14:38:37;5.30;;;2.50;;
12088;SDS011;6107;49.078;8.578;2023-02-19T14:41:08;9.30;;;2.60;;
12088;SDS011;6107;49.078;8.578;2023-02-19T14:43:37;5.47;;;2.93;;
12088;SDS011;6107;49.078;8.578;2023-02-19T14:46:06;4.47;;;2.50;;
12088;SDS011;6107;49.078;8.578;2023-02-19T14:48:36;5.30;;;2.73;;
12088;SDS011;6107;49.078;8.578;2023-02-19T14:51:07;6.03;;;2.80;;
12088;SDS011;6107;49.078;8.578;2023-02-19T14:53:40;6.50;;;2.87;;
12088;SDS011;6107;49.078;8.578;2023-02-19T14:56:13;4.27;;;2.57;;
12088;SDS011;6107;49.078;8.578;2023-02-19T14:58:41;4.57;;;2.03;;
12088;SDS011;6107;49.078;8.578;2023-02-19T15:01:23;6.33;;;2.60;;
12088;SDS011;6107;49.078;8.578;2023-02-19T15:03:52;6.10;;;2.43;;
12088;SDS011;6107;49.078;8.578;2023-02-19T15:06:20;6.37;;;2.33;;
12088;SDS011;6107;49.078;8.578;2023-02-19T15:08:49;8.80;;;3.67;;
12088;SDS011;6107;49.078;8.578;2023-02-19T15:11:18;8.80;;;3.00;;
12088;SDS011;6107;49.078;8.578;2023-02-19T15:13:51;6.10;;;2.70;;
12088;SDS011;6107;49.078;8.578;2023-02-19T15:16:18;5.13;;;2.13;;
12088;SDS011;6107;49.078;8.578;2023-02-19T15:18:45;3.57;;;1.90;;
12088;SDS011;6107;49.078;8.578;2023-02-19T15:21:19;4.93;;;1.63;;
12088;SDS011;6107;49.078;8.578;2023-02-19T15:23:46;4.20;;;1.70;;
12088;SDS011;6107;49.078;8.578;2023-02-19T15:29:12;4.93;;;1.80;;
12088;SDS011;6107;49.078;8.578;2023-02-19T15:31:49;5.97;;;2.20;;
12088;SDS011;6107;49.078;8.578;2023-02-19T15:34:19;4.93;;;2.47;;
12088;SDS011;6107;49.078;8.578;2023-02-19T15:36:46;5.27;;;2.03;;
12088;SDS011;6107;49.078;8.578;2023-02-19T15:39:18;5.57;;;3.03;;
12088;SDS011;6107;49.078;8.578;2023-02-19T15:41:48;7.33;;;3.83;;
12088;SDS011;6107;49.078;8.578;2023-02-19T15:46:44;13.87;;;6.27;;
12088;SDS011;6107;49.078;8.578;2023-02-19T15:49:16;23.47;;;9.83;;
12088;SDS011;6107;49.078;8.578;2023-02-19T15:51:44;9.13;;;4.83;;
12088;SDS011;6107;49.078;8.578;2023-02-19T15:54:32;6.00;;;3.00;;
12088;SDS011;6107;49.078;8.578;2023-02-19T15:57:04;6.47;;;2.80;;
12088;SDS011;6107;49.078;8.578;2023-02-19T15:59:37;6.67;;;2.70;;
12088;SDS011;6107;49.078;8.578;2023-02-19T16:02:10;6.23;;;2.80;;
12088;SDS011;6107;49.078;8.578;2023-02-19T16:04:38;5.67;;;2.93;;
12088;SDS011;6107;49.078;8.578;2023-02-19T16:07:19;5.17;;;2.60;;
12088;SDS011;6107;49.078;8.578;2023-02-19T16:09:47;4.20;;;2.53;;
12088;SDS011;6107;49.078;8.578;2023-02-19T16:12:20;4.60;;;3.07;;
12088;SDS011;6107;49.078;8.578;2023-02-19T16:14:47;8.63;;;2.47;;
12088;SDS011;6107;49.078;8.578;2023-02-19T16:17:15;6.90;;;3.10;;
12088;SDS011;6107;49.078;8.578;2023-02-19T16:19:46;3.60;;;2.30;;
12088;SDS011;6107;49.078;8.578;2023-02-19T16:22:16;5.40;;;2.60;;
12088;SDS011;6107;49.078;8.578;2023-02-19T16:24:44;6.13;;;2.67;;
12088;SDS011;6107;49.078;8.578;2023-02-19T16:27:12;5.03;;;2.40;;
12088;SDS011;6107;49.078;8.578;2023-02-19T16:29:51;5.77;;;2.33;;
12088;SDS011;6107;49.078;8.578;2023-02-19T16:32:16;5.23;;;2.50;;
12088;SDS011;6107;49.078;8.578;2023-02-19T16:34:46;6.23;;;2.50;;
12088;SDS011;6107;49.078;8.578;2023-02-19T16:42:33;6.83;;;3.03;;
12088;SDS011;6107;49.078;8.578;2023-02-19T16:44:59;6.60;;;2.67;;
12088;SDS011;6107;49.078;8.578;2023-02-19T16:47:26;6.27;;;2.20;;
12088;SDS011;6107;49.078;8.578;2023-02-19T16:49:57;5.47;;;2.73;;
12088;SDS011;6107;49.078;8.578;2023-02-19T16:52:24;9.30;;;2.63;;
12088;SDS011;6107;49.078;8.578;2023-02-19T16:54:50;4.03;;;2.43;;
12088;SDS011;6107;49.078;8.578;2023-02-19T16:57:15;6.63;;;2.70;;
12088;SDS011;6107;49.078;8.578;2023-02-19T16:59:41;6.53;;;2.87;;
12088;SDS011;6107;49.078;8.578;2023-02-19T17:02:07;6.17;;;2.43;;
12088;SDS011;6107;49.078;8.578;2023-02-19T17:04:38;5.37;;;2.60;;
12088;SDS011;6107;49.078;8.578;2023-02-19T17:07:04;6.13;;;2.63;;
12088;SDS011;6107;49.078;8.578;2023-02-19T17:09:29;3.87;;;2.70;;
12088;SDS011;6107;49.078;8.578;2023-02-19T17:11:55;4.60;;;3.03;;
12088;SDS011;6107;49.078;8.578;2023-02-19T17:14:20;5.20;;;2.47;;
12088;SDS011;6107;49.078;8.578;2023-02-19T17:16:46;5.30;;;3.40;;
12088;SDS011;6107;49.078;8.578;2023-02-19T17:19:13;5.60;;;3.07;;
12088;SDS011;6107;49.078;8.578;2023-02-19T17:21:40;7.67;;;3.07;;
12088;SDS011;6107;49.078;8.578;2023-02-19T17:24:06;4.73;;;2.70;;